Time;durP1;ratioP1;P1;durP2;ratioP2;P2;SDS_P1;SDS_P2;PMS_P1;PMS_P2;Temp;Humidity;BMP_temperature;BMP_pressure;BME280_temperature;BME280_humidity;BME280_pressure;Samples;Min_cycle;Max_cycle;Signal;HPM_P1;HPM_P2
2022/05/23 00:02:00;;;;;;;3.17;2.83;;;14.80;99.90;;;;;;5034909;28;20028;-53
2022/05/23 00:04:26;;;;;;;6.45;2.55;;;14.80;99.90;;;;;;5034376;28;20056;-51
2022/05/23 00:06:52;;;;;;;5.85;2.53;;;14.90;99.90;;;;;;5034287;28;20029;-55
2022/05/23 00:09:18;;;;;;;5.15;2.42;;;14.90;99.90;;;;;;5034193;28;20036;-54
2022/05/23 00:11:44;;;;;;;7.03;3.13;;;14.90;99.90;;;;;;5035470;28;20025;-50
2022/05/23 00:14:10;;;;;;;7.97;3.17;;;14.80;99.90;;;;;;5035455;28;20030;-49
2022/05/23 00:16:40;;;;;;;4.30;2.78;;;14.90;99.90;;;;;;5035415;28;20056;-51
2022/05/23 00:22:28;;;;;;;;;;;14.90;99.90;;;;;;5036055;28;20140;-53
2022/05/23 00:24:55;;;;;;;6.93;2.55;;;14.90;99.90;;;;;;5035518;28;19971;-52
2022/05/23 00:27:22;;;;;;;10.38;3.30;;;14.90;99.90;;;;;;5035479;28;20029;-48
2022/05/23 00:29:49;;;;;;;8.32;2.95;;;14.90;99.90;;;;;;5035261;28;20034;-54
2022/05/23 00:37:42;;;;;;;3.45;2.40;;;14.80;99.90;;;;;;5035636;28;20080;-52
2022/05/23 00:40:20;;;;;;;3.83;2.28;;;14.70;99.90;;;;;;5033711;28;20025;-50
2022/05/23 00:45:30;;;;;;;4.43;2.60;;;14.80;99.90;;;;;;5035397;28;20036;-52
2022/05/23 00:47:55;;;;;;;4.25;2.53;;;14.90;99.90;;;;;;5034925;28;20025;-51
2022/05/23 00:50:21;;;;;;;7.18;2.97;;;14.90;99.90;;;;;;5034789;28;20421;-48
2022/05/23 00:52:53;;;;;;;5.90;3.13;;;14.90;99.90;;;;;;5033483;28;20025;-53
2022/05/23 00:55:26;;;;;;;6.88;3.40;;;14.80;99.90;;;;;;5033953;28;20027;-52
2022/05/23 00:57:54;;;;;;;10.00;3.53;;;14.80;99.90;;;;;;5050345;28;20022;-55
2022/05/23 01:00:20;;;;;;;4.63;2.95;;;14.80;99.90;;;;;;5033343;28;20037;-51
2022/05/23 01:02:51;;;;;;;5.80;2.70;;;14.70;99.90;;;;;;5033535;28;20025;-49
2022/05/23 01:05:18;;;;;;;8.10;2.90;;;14.80;99.90;;;;;;5034539;28;20026;-51
2022/05/23 01:07:44;;;;;;;6.65;3.42;;;14.80;99.90;;;;;;5033054;28;20034;-48
2022/05/23 01:10:10;;;;;;;5.78;3.10;;;14.70;99.90;;;;;;5034548;28;20029;-48
2022/05/23 01:12:37;;;;;;;6.35;2.90;;;14.70;99.90;;;;;;5033052;28;20025;-51
2022/05/23 01:15:05;;;;;;;5.05;3.25;;;14.70;99.90;;;;;;5032991;28;20107;-54
2022/05/23 01:17:31;;;;;;;3.95;2.85;;;14.70;99.90;;;;;;5034338;28;20021;-54
2022/05/23 01:19:57;;;;;;;6.63;2.88;;;14.70;99.90;;;;;;5033272;28;20026;-49
2022/05/23 01:22:40;;;;;;;7.03;3.17;;;14.60;99.90;;;;;;5032437;28;20021;-50
2022/05/23 01:25:27;;;;;;;7.47;3.10;;;14.70;99.90;;;;;;5032672;28;20395;-52
2022/05/23 01:27:53;;;;;;;4.43;2.80;;;14.60;99.90;;;;;;5032693;28;20033;-53
2022/05/23 01:30:20;;;;;;;6.03;2.80;;;14.70;99.90;;;;;;5034028;28;20079;-53
2022/05/23 01:32:46;;;;;;;4.47;2.58;;;14.70;99.90;;;;;;5033446;28;20022;-52
2022/05/23 01:35:13;;;;;;;3.88;2.45;;;14.80;99.90;;;;;;5033097;28;20033;-50
2022/05/23 01:37:38;;;;;;;5.68;3.00;;;14.80;99.90;;;;;;5033869;28;20030;-52
2022/05/23 01:40:07;;;;;;;4.00;2.60;;;14.80;99.90;;;;;;5033826;28;20044;-52
2022/05/23 01:42:33;;;;;;;2.83;2.47;;;15.00;99.90;;;;;;5049629;28;20030;-54
2022/05/23 01:44:59;;;;;;;3.45;2.58;;;15.00;99.90;;;;;;5032741;28;20108;-54
2022/05/23 01:47:25;;;;;;;6.30;2.72;;;15.00;99.90;;;;;;5032315;28;20076;-49
2022/05/23 01:49:50;;;;;;;6.70;3.20;;;15.10;99.90;;;;;;5033706;28;20041;-53
2022/05/23 01:52:16;;;;;;;4.15;2.67;;;15.00;99.90;;;;;;5033526;28;20031;-52
2022/05/23 01:54:42;;;;;;;8.32;3.22;;;14.90;99.90;;;;;;5032478;28;20018;-49
2022/05/23 01:57:09;;;;;;;5.07;2.80;;;14.90;99.90;;;;;;5033582;28;20022;-52
2022/05/23 02:02:20;;;;;;;4.28;2.60;;;14.90;99.90;;;;;;5034061;28;20056;-53
2022/05/23 02:04:46;;;;;;;3.22;2.92;;;14.90;99.90;;;;;;5033631;28;20021;-51
2022/05/23 02:07:13;;;;;;;7.57;3.05;;;14.90;99.90;;;;;;5032090;28;20047;-48
2022/05/23 02:09:38;;;;;;;5.47;3.40;;;14.80;99.90;;;;;;5033267;28;20037;-52
2022/05/23 02:12:06;;;;;;;4.68;3.15;;;14.80;99.90;;;;;;5031984;28;20079;-53
2022/05/23 02:14:32;;;;;;;7.20;3.10;;;14.60;99.90;;;;;;5032785;28;20029;-53
2022/05/23 02:16:57;;;;;;;5.03;3.00;;;14.60;99.90;;;;;;5033167;28;20025;-53
2022/05/23 02:19:24;;;;;;;4.93;2.80;;;14.60;99.90;;;;;;5031842;28;20029;-54
2022/05/23 02:21:49;;;;;;;6.07;3.28;;;14.70;99.90;;;;;;5031965;28;20025;-53
2022/05/23 02:24:16;;;;;;;9.30;3.15;;;14.80;99.90;;;;;;5031706;28;20075;-52
2022/05/23 02:26:41;;;;;;;8.57;3.92;;;14.70;99.90;;;;;;5031834;28;20048;-54
2022/05/23 02:29:08;;;;;;;10.35;4.07;;;14.70;99.90;;;;;;5032872;28;20430;-50
2022/05/23 02:31:34;;;;;;;6.55;3.70;;;14.60;99.90;;;;;;5031633;28;20120;-54
2022/05/23 02:34:00;;;;;;;7.75;3.80;;;14.60;99.90;;;;;;5031205;28;20026;-50
2022/05/23 02:36:27;;;;;;;6.03;3.47;;;14.60;99.90;;;;;;5032796;28;20037;-52
2022/05/23 02:38:53;;;;;;;7.35;3.40;;;14.50;99.90;;;;;;5032932;28;20028;-51
2022/05/23 02:41:19;;;;;;;11.45;3.17;;;14.50;99.90;;;;;;5032874;28;20108;-52
2022/05/23 02:43:44;;;;;;;3.88;2.88;;;14.50;99.90;;;;;;5032874;28;20073;-50
2022/05/23 02:46:10;;;;;;;6.68;3.20;;;14.50;99.90;;;;;;5031806;28;20369;-51
2022/05/23 02:48:35;;;;;;;7.97;3.03;;;14.50;99.90;;;;;;5032789;28;20026;-49
2022/05/23 02:51:01;;;;;;;3.33;2.50;;;14.50;99.90;;;;;;5031459;28;20022;-52
2022/05/23 02:53:27;;;;;;;7.80;3.20;;;14.50;99.90;;;;;;5032264;28;20024;-49
2022/05/23 02:55:52;;;;;;;4.10;2.72;;;14.50;99.90;;;;;;5031336;28;20515;-53
2022/05/23 02:58:18;;;;;;;8.20;3.10;;;14.70;99.90;;;;;;5031467;28;20045;-52
2022/05/23 03:00:44;;;;;;;6.63;3.58;;;14.70;99.90;;;;;;5032738;28;20026;-51
2022/05/23 03:03:10;;;;;;;5.28;3.22;;;14.60;99.90;;;;;;5031606;28;20021;-52
2022/05/23 03:05:48;;;;;;;6.63;3.15;;;14.60;99.90;;;;;;5032584;28;20021;-54
2022/05/23 03:08:17;;;;;;;10.23;3.05;;;14.60;99.90;;;;;;5032532;28;20112;-55
2022/05/23 03:10:42;;;;;;;5.85;3.28;;;14.60;99.90;;;;;;5031657;28;20099;-52
2022/05/23 03:13:09;;;;;;;10.75;3.85;;;14.60;99.90;;;;;;5031414;28;20484;-54
2022/05/23 03:15:35;;;;;;;5.28;3.45;;;14.40;99.90;;;;;;5032465;28;20033;-52
2022/05/23 03:18:02;;;;;;;7.18;3.92;;;14.30;99.90;;;;;;5031212;28;20033;-50
2022/05/23 03:20:28;;;;;;;8.90;3.55;;;14.30;99.90;;;;;;5031534;28;20021;-54
2022/05/23 03:28:22;;;;;;;5.28;3.40;;;14.20;99.90;;;;;;5032861;28;20076;-52
2022/05/23 03:30:49;;;;;;;4.63;3.08;;;14.30;99.90;;;;;;5031099;28;20037;-54
2022/05/23 03:33:16;;;;;;;7.70;3.00;;;14.30;99.90;;;;;;5031522;28;20025;-49
2022/05/23 03:35:43;;;;;;;6.88;3.00;;;14.20;99.90;;;;;;5030946;28;20026;-52
2022/05/23 03:38:09;;;;;;;6.05;3.58;;;14.10;99.90;;;;;;5031359;28;20084;-55
2022/05/23 03:40:37;;;;;;;6.85;3.80;;;14.10;99.90;;;;;;5030917;28;20037;-52
2022/05/23 03:43:03;;;;;;;8.38;3.65;;;14.20;99.90;;;;;;5032564;28;20104;-50
2022/05/23 03:45:30;;;;;;;10.05;4.80;;;14.20;99.90;;;;;;5032362;28;20045;-50
2022/05/23 03:47:57;;;;;;;6.07;3.28;;;14.20;99.90;;;;;;5035850;28;20060;-53
2022/05/23 03:50:26;;;;;;;9.52;3.50;;;14.10;99.90;;;;;;5036169;28;20473;-52
2022/05/23 03:52:52;;;;;;;6.32;3.30;;;14.20;99.90;;;;;;5035891;28;20048;-51
2022/05/23 03:55:18;;;;;;;6.70;3.20;;;14.20;99.90;;;;;;5034402;28;20025;-55
2022/05/23 03:57:44;;;;;;;10.32;4.07;;;14.20;99.90;;;;;;5034527;28;20116;-54
2022/05/23 04:00:14;;;;;;;6.25;4.65;;;14.30;99.90;;;;;;5035274;28;20053;-55
2022/05/23 04:02:41;;;;;;;6.28;3.78;;;14.30;99.90;;;;;;5035850;28;20096;-53
2022/05/23 04:05:12;;;;;;;6.03;3.55;;;14.30;99.90;;;;;;5035646;28;20032;-53
2022/05/23 04:07:39;;;;;;;5.80;3.63;;;14.40;99.90;;;;;;5035557;28;20159;-55
2022/05/23 04:10:08;;;;;;;5.22;3.50;;;14.50;99.90;;;;;;5035625;28;20024;-52
2022/05/23 04:12:33;;;;;;;7.10;4.13;;;14.50;99.90;;;;;;5034480;28;20391;-49
2022/05/23 04:14:59;;;;;;;7.35;3.83;;;14.50;99.90;;;;;;5035798;28;20021;-51
2022/05/23 04:17:25;;;;;;;5.75;3.85;;;14.60;99.90;;;;;;5034269;28;20029;-53
2022/05/23 04:19:50;;;;;;;7.10;3.80;;;14.70;99.90;;;;;;5034008;28;20033;-51
2022/05/23 04:22:16;;;;;;;6.65;3.60;;;14.70;99.90;;;;;;5035583;28;20026;-49
2022/05/23 04:24:41;;;;;;;3.85;3.08;;;14.70;99.90;;;;;;5035271;28;20075;-52
2022/05/23 04:27:07;;;;;;;7.22;3.53;;;14.80;99.90;;;;;;5034277;28;20029;-51
2022/05/23 04:29:33;;;;;;;6.15;3.22;;;14.80;99.90;;;;;;5035372;28;20383;-49
2022/05/23 04:31:58;;;;;;;5.05;3.72;;;14.90;99.90;;;;;;5034112;28;20488;-51
2022/05/23 04:37:08;;;;;;;10.15;4.38;;;15.00;99.90;;;;;;5036166;28;20028;-49
2022/05/23 04:39:34;;;;;;;7.35;3.67;;;15.20;99.90;;;;;;5035416;28;20037;-52
2022/05/23 04:42:00;;;;;;;14.55;4.28;;;15.20;99.90;;;;;;5035512;28;20026;-49
2022/05/23 04:44:27;;;;;;;9.05;4.28;;;15.20;99.90;;;;;;5035394;28;20029;-53
2022/05/23 04:49:41;;;;;;;8.10;3.58;;;15.20;99.90;;;;;;5035597;28;20064;-52
2022/05/23 04:52:11;;;;;;;8.13;3.67;;;15.20;99.90;;;;;;5035601;28;20156;-50
2022/05/23 04:54:38;;;;;;;14.52;5.43;;;15.20;99.90;;;;;;5034917;28;20130;-54
2022/05/23 04:57:05;;;;;;;16.00;4.28;;;15.20;99.90;;;;;;5035097;28;20032;-50
2022/05/23 04:59:32;;;;;;;11.40;4.07;;;15.30;99.90;;;;;;5033516;28;20423;-51
2022/05/23 05:01:57;;;;;;;11.90;4.03;;;15.30;99.90;;;;;;5034255;28;20124;-54
2022/05/23 05:04:23;;;;;;;6.63;3.80;;;15.30;99.90;;;;;;5034130;28;20156;-54
2022/05/23 05:06:48;;;;;;;14.15;4.47;;;15.40;99.90;;;;;;5035273;28;20036;-54
2022/05/23 05:09:14;;;;;;;7.72;4.03;;;15.30;99.90;;;;;;5033634;28;20032;-54
2022/05/23 05:11:40;;;;;;;12.40;4.50;;;15.30;99.90;;;;;;5034952;28;20384;-49
2022/05/23 05:14:06;;;;;;;8.45;4.53;;;15.40;99.90;;;;;;5034198;28;20022;-53
2022/05/23 05:16:32;;;;;;;9.02;4.30;;;15.40;99.90;;;;;;5034827;28;20022;-49
2022/05/23 05:18:58;;;;;;;13.38;3.95;;;15.50;99.90;;;;;;5034075;28;20029;-54
2022/05/23 05:21:25;;;;;;;8.20;4.20;;;15.50;99.90;;;;;;5033496;28;20030;-51
2022/05/23 05:23:51;;;;;;;5.47;4.40;;;15.50;99.90;;;;;;5035005;28;20048;-49
2022/05/23 05:26:16;;;;;;;8.75;4.15;;;15.50;99.90;;;;;;5033206;28;20029;-48
2022/05/23 05:28:42;;;;;;;7.38;4.13;;;15.60;99.90;;;;;;5034453;28;20035;-51
2022/05/23 05:31:34;;;;;;;12.13;4.40;;;15.70;99.90;;;;;;5034604;28;20060;-54
2022/05/23 05:34:15;;;;;;;9.43;4.10;;;15.70;99.90;;;;;;5034393;28;20041;-54
2022/05/23 05:36:45;;;;;;;5.22;3.90;;;15.80;99.90;;;;;;5034843;28;20076;-55
2022/05/23 05:39:14;;;;;;;6.63;4.30;;;15.90;99.90;;;;;;5033129;28;20064;-53
2022/05/23 05:41:50;;;;;;;7.63;4.40;;;15.90;99.90;;;;;;5033186;28;20138;-51
2022/05/23 05:44:20;;;;;;;9.27;4.15;;;16.10;99.90;;;;;;5033055;28;20025;-55
2022/05/23 05:46:56;;;;;;;6.28;4.00;;;16.10;99.90;;;;;;5033015;28;20057;-54
2022/05/23 05:49:29;;;;;;;7.07;3.75;;;16.20;99.90;;;;;;5034219;28;20022;-53
2022/05/23 05:52:00;;;;;;;7.07;3.60;;;16.40;99.90;;;;;;5034206;28;20059;-52
2022/05/23 05:54:28;;;;;;;6.72;3.97;;;16.50;99.90;;;;;;5033798;28;20365;-54
2022/05/23 05:56:55;;;;;;;6.90;3.83;;;16.70;99.90;;;;;;5033115;28;20033;-54
2022/05/23 05:59:21;;;;;;;6.30;4.00;;;16.90;99.90;;;;;;5034071;28;20025;-52
2022/05/23 06:01:47;;;;;;;5.28;3.45;;;17.20;99.90;;;;;;5034334;28;20107;-54
2022/05/23 06:04:13;;;;;;;7.43;3.65;;;17.60;99.90;;;;;;5032637;28;20072;-56
2022/05/23 06:12:44;;;;;;;10.95;4.30;;;18.80;99.90;;;;;;5034269;28;20033;-56
2022/05/23 06:15:10;;;;;;;5.97;3.63;;;18.70;99.90;;;;;;5032586;28;20017;-57
2022/05/23 06:17:43;;;;;;;6.38;3.35;;;18.50;99.90;;;;;;5032748;28;20029;-60
2022/05/23 06:20:10;;;;;;;5.43;3.13;;;18.60;99.90;;;;;;5033733;28;20032;-57
2022/05/23 06:22:36;;;;;;;8.20;3.47;;;18.70;99.90;;;;;;5033620;28;20021;-57
2022/05/23 06:25:02;;;;;;;6.78;3.65;;;19.00;99.90;;;;;;5033531;28;20155;-58
2022/05/23 06:27:28;;;;;;;5.82;3.20;;;19.30;99.90;;;;;;5033684;28;20052;-59
2022/05/23 06:29:54;;;;;;;4.07;2.70;;;19.40;99.90;;;;;;5032245;28;20033;-59
2022/05/23 06:32:20;;;;;;;8.50;3.38;;;19.20;99.90;;;;;;5033781;28;20026;-58
2022/05/23 06:34:46;;;;;;;5.28;2.55;;;18.90;99.90;;;;;;5032431;28;20074;-57
2022/05/23 06:37:12;;;;;;;4.45;2.67;;;18.80;99.90;;;;;;5032154;28;20038;-58
2022/05/23 06:39:38;;;;;;;10.02;2.92;;;18.60;99.90;;;;;;5032192;28;20026;-59
2022/05/23 06:42:04;;;;;;;4.30;2.70;;;18.50;99.90;;;;;;5033639;28;20076;-59
2022/05/23 06:44:30;;;;;;;8.15;3.00;;;18.30;99.90;;;;;;5033028;28;20037;-59
2022/05/23 06:46:56;;;;;;;4.57;2.78;;;18.40;99.90;;;;;;5033363;28;20022;-59
2022/05/23 06:49:21;;;;;;;7.38;2.90;;;18.20;99.90;;;;;;5031999;28;20178;-60
2022/05/23 06:51:51;;;;;;;5.70;2.72;;;18.00;99.90;;;;;;5033199;28;20075;-60
2022/05/23 06:54:19;;;;;;;4.10;2.78;;;17.90;99.90;;;;;;5032013;28;20029;-58
2022/05/23 06:56:45;;;;;;;6.13;2.38;;;17.90;99.90;;;;;;5033347;28;20029;-58
2022/05/23 06:59:12;;;;;;;6.65;3.35;;;17.90;99.90;;;;;;5033188;28;20077;-59
2022/05/23 07:01:38;;;;;;;6.75;3.10;;;17.70;99.90;;;;;;5031924;28;20572;-53
2022/05/23 07:04:04;;;;;;;4.13;2.55;;;17.60;99.90;;;;;;5033114;28;20109;-54
2022/05/23 07:14:41;;;;;;;3.80;2.70;;;18.00;99.90;;;;;;5033599;28;20041;-56
2022/05/23 07:17:07;;;;;;;5.18;2.70;;;18.20;99.90;;;;;;5033098;28;20026;-57
2022/05/23 07:19:36;;;;;;;6.30;2.95;;;18.40;99.90;;;;;;5032050;28;20116;-57
2022/05/23 07:22:02;;;;;;;5.32;3.00;;;18.50;99.90;;;;;;5034609;28;20133;-57
2022/05/23 07:24:28;;;;;;;8.98;4.95;;;18.50;99.90;;;;;;5036736;28;20057;-57
2022/05/23 07:26:55;;;;;;;6.43;2.67;;;18.60;99.90;;;;;;5036943;28;20021;-50
2022/05/23 07:29:24;;;;;;;7.40;3.33;;;18.70;99.90;;;;;;5035594;28;20032;-57
2022/05/23 07:31:51;;;;;;;10.10;3.38;;;18.80;99.90;;;;;;5037175;28;20022;-56
2022/05/23 07:34:18;;;;;;;3.42;2.40;;;18.90;99.90;;;;;;5036705;28;20022;-57
2022/05/23 07:36:44;;;;;;;4.18;2.90;;;19.00;99.90;;;;;;5035509;28;20024;-55
2022/05/23 07:39:11;;;;;;;5.53;2.70;;;19.10;99.90;;;;;;5036669;28;20395;-57
2022/05/23 07:41:39;;;;;;;6.20;3.55;;;19.10;99.90;;;;;;5036696;28;20026;-56
2022/05/23 07:44:06;;;;;;;3.90;3.13;;;19.10;99.90;;;;;;5035453;28;20029;-57
2022/05/23 07:46:32;;;;;;;4.40;2.40;;;19.20;99.90;;;;;;5035370;28;20029;-57
2022/05/23 07:48:59;;;;;;;6.05;2.85;;;19.10;99.90;;;;;;5035213;28;20025;-57
2022/05/23 07:51:24;;;;;;;4.78;2.63;;;19.00;99.90;;;;;;5035161;28;20080;-57
2022/05/23 08:02:04;;;;;;;5.57;3.22;;;19.40;99.90;;;;;;5036588;28;20056;-51
2022/05/23 08:04:30;;;;;;;6.30;3.20;;;19.40;99.90;;;;;;5036570;28;20048;-55
2022/05/23 08:06:56;;;;;;;8.40;3.13;;;19.40;99.90;;;;;;5036496;28;20049;-56
2022/05/23 08:09:22;;;;;;;6.72;3.22;;;19.50;99.90;;;;;;5036671;28;20065;-53
2022/05/23 08:11:52;;;;;;;6.65;3.20;;;19.40;99.90;;;;;;5035206;28;20017;-56
2022/05/23 08:14:18;;;;;;;9.70;3.20;;;19.40;99.90;;;;;;5036603;28;20021;-58
2022/05/23 08:16:43;;;;;;;6.15;3.30;;;19.40;99.90;;;;;;5051423;28;20395;-55
2022/05/23 08:19:09;;;;;;;6.18;3.25;;;19.50;99.90;;;;;;5034700;28;20021;-57
2022/05/23 08:21:38;;;;;;;4.90;3.15;;;19.60;99.90;;;;;;5035968;28;20105;-55
2022/05/23 08:24:04;;;;;;;8.65;3.97;;;19.70;99.90;;;;;;5035897;28;20017;-52
2022/05/23 08:26:29;;;;;;;8.77;3.65;;;19.70;99.90;;;;;;5034538;28;20112;-56
2022/05/23 08:28:55;;;;;;;7.38;3.38;;;19.80;99.90;;;;;;5034374;28;20021;-57
2022/05/23 08:31:21;;;;;;;9.43;4.03;;;19.80;99.90;;;;;;5034356;28;20071;-55
2022/05/23 08:33:47;;;;;;;5.68;3.15;;;19.80;99.90;;;;;;5034352;28;20018;-56
2022/05/23 08:36:12;;;;;;;6.55;3.45;;;19.70;99.90;;;;;;5035454;28;20026;-53
2022/05/23 08:38:38;;;;;;;6.47;3.38;;;19.70;99.90;;;;;;5034273;28;20518;-57
2022/05/23 08:41:16;;;;;;;7.10;3.72;;;19.70;99.90;;;;;;5034305;28;20026;-56
2022/05/23 08:43:50;;;;;;;7.13;3.85;;;19.60;99.90;;;;;;5035860;28;20040;-53
2022/05/23 08:46:38;;;;;;;4.85;3.30;;;19.50;99.90;;;;;;5035510;28;20052;-55
2022/05/23 08:49:24;;;;;;;7.30;3.63;;;19.50;99.90;;;;;;5035373;28;20029;-57
2022/05/23 08:52:21;;;;;;;5.47;3.05;;;19.60;99.90;;;;;;5034218;28;20089;-57
2022/05/23 08:54:53;;;;;;;10.57;4.18;;;19.50;99.90;;;;;;5007978;28;20037;-56
2022/05/23 08:58:01;;;;;;;6.45;3.53;;;19.40;99.90;;;;;;5034053;28;20021;-57
2022/05/23 09:00:35;;;;;;;8.82;4.10;;;19.40;99.90;;;;;;4996348;28;20041;-54
2022/05/23 09:03:29;;;;;;;6.50;3.83;;;19.40;99.90;;;;;;5034276;22;20074;-50
2022/05/23 09:06:02;;;;;;;6.75;3.92;;;19.20;99.90;;;;;;5015815;28;20050;-53
2022/05/23 09:08:32;;;;;;;7.47;3.75;;;19.10;99.90;;;;;;5014023;28;20041;-50
2022/05/23 09:11:05;;;;;;;7.40;4.32;;;19.10;99.90;;;;;;5014421;28;20026;-51
2022/05/23 09:13:37;;;;;;;7.43;4.07;;;19.00;99.90;;;;;;5015247;28;20056;-54
2022/05/23 09:16:05;;;;;;;10.48;4.03;;;19.00;99.90;;;;;;5014032;28;20030;-52
2022/05/23 09:18:48;;;;;;;6.95;3.88;;;18.90;99.90;;;;;;5013854;28;20037;-48
2022/05/23 09:21:14;;;;;;;8.88;3.85;;;18.80;99.90;;;;;;5013887;28;20033;-50
2022/05/23 09:23:45;;;;;;;8.98;3.88;;;18.80;99.90;;;;;;5015023;28;20026;-48
2022/05/23 09:26:26;;;;;;;9.73;3.80;;;18.90;99.90;;;;;;5013888;28;20026;-52
2022/05/23 09:28:52;;;;;;;8.77;3.97;;;19.20;99.90;;;;;;5014990;28;20026;-48
2022/05/23 09:31:34;;;;;;;11.02;4.50;;;19.40;99.90;;;;;;5013555;28;20029;-52
2022/05/23 09:34:00;;;;;;;10.10;3.90;;;19.60;99.90;;;;;;5013702;28;20487;-49
2022/05/23 09:36:36;;;;;;;6.63;3.47;;;19.80;99.90;;;;;;5014150;28;20022;-48
2022/05/23 09:39:08;;;;;;;5.40;3.25;;;19.90;99.90;;;;;;5014694;28;20029;-50
2022/05/23 09:50:07;;;;;;;6.00;2.75;;;21.20;99.90;;;;;;5014897;28;20033;-49
2022/05/23 09:52:42;;;;;;;3.67;2.45;;;21.20;99.90;;;;;;5013560;28;20026;-50
2022/05/23 09:55:12;;;;;;;4.22;2.50;;;21.30;99.90;;;;;;5013272;28;20030;-50
2022/05/23 09:57:41;;;;;;;5.03;2.30;;;21.70;99.90;;;;;;5013510;28;20033;-50
2022/05/23 10:00:25;;;;;;;5.30;2.92;;;21.70;99.90;;;;;;5013430;28;20033;-51
2022/05/23 10:03:01;;;;;;;5.97;2.90;;;21.70;99.90;;;;;;5014463;28;20045;-52
2022/05/23 10:05:30;;;;;;;4.35;3.03;;;21.90;99.90;;;;;;5013354;28;20480;-51
2022/05/23 10:08:01;;;;;;;5.20;2.20;;;22.60;99.90;;;;;;5012929;28;20049;-52
2022/05/23 10:10:30;;;;;;;5.53;2.60;;;23.90;99.90;;;;;;5014304;28;20026;-51
2022/05/23 10:13:30;;;;;;;3.08;2.60;;;24.80;99.90;;;;;;5014268;28;20030;-49
2022/05/23 10:15:58;;;;;;;3.10;2.53;;;24.70;99.90;;;;;;5013546;28;20025;-53
2022/05/23 10:18:33;;;;;;;4.25;2.80;;;25.00;99.90;;;;;;5013238;28;20033;-50
2022/05/23 10:21:00;;;;;;;7.28;2.63;;;25.70;99.90;;;;;;5014113;28;20380;-51
2022/05/23 10:23:30;;;;;;;6.85;3.05;;;25.70;99.90;;;;;;5012787;28;20034;-53
2022/05/23 10:26:29;;;;;;;5.70;2.55;;;25.30;99.90;;;;;;5013971;28;20022;-51
2022/05/23 10:29:03;;;;;;;5.25;2.70;;;24.90;99.90;;;;;;4981908;28;20400;-52
2022/05/23 10:31:46;;;;;;;4.85;2.67;;;25.20;99.90;;;;;;5012605;28;20502;-55
2022/05/23 10:34:27;;;;;;;5.30;2.63;;;25.20;99.90;;;;;;5012945;28;20029;-51
2022/05/23 10:36:54;;;;;;;4.53;3.28;;;24.80;99.90;;;;;;5012955;28;20030;-50
2022/05/23 10:42:13;;;;;;;5.35;3.40;;;24.70;99.90;;;;;;5013876;28;20029;-51
2022/05/23 10:44:57;;;;;;;4.97;3.33;;;23.60;99.90;;;;;;5012544;28;20032;-50
2022/05/23 10:47:52;;;;;;;6.93;3.42;;;23.20;99.90;;;;;;5013189;28;20029;-50
2022/05/23 10:50:25;;;;;;;5.57;3.30;;;23.10;99.90;;;;;;5013567;28;20026;-53
2022/05/23 10:53:17;;;;;;;5.53;3.10;;;23.00;99.90;;;;;;5012286;28;20036;-52
2022/05/23 10:55:46;;;;;;;8.77;3.28;;;23.00;99.90;;;;;;4990180;28;20113;-55
2022/05/23 10:58:31;;;;;;;5.72;2.83;;;23.00;99.90;;;;;;5013565;28;20033;-53
2022/05/23 11:01:15;;;;;;;7.40;3.20;;;22.70;99.90;;;;;;5013235;28;20026;-52
2022/05/23 11:03:52;;;;;;;5.47;3.30;;;22.70;99.90;;;;;;5013087;28;20034;-50
2022/05/23 11:06:34;;;;;;;6.38;2.92;;;22.60;99.90;;;;;;5012294;28;20026;-51
2022/05/23 11:09:37;;;;;;;5.07;3.58;;;22.80;99.90;;;;;;5013361;28;20026;-49
2022/05/23 11:12:33;;;;;;;5.68;3.53;;;22.80;99.90;;;;;;5012135;28;20018;-53
2022/05/23 11:15:29;;;;;;;6.40;3.40;;;22.60;99.90;;;;;;4979778;28;20026;-51
2022/05/23 11:18:09;;;;;;;6.68;3.47;;;22.60;99.90;;;;;;5013658;28;20407;-50
2022/05/23 11:20:37;;;;;;;5.28;3.55;;;22.50;99.90;;;;;;5012134;28;20085;-50
2022/05/23 11:23:08;;;;;;;11.60;4.00;;;22.40;99.90;;;;;;5013270;28;20037;-50
2022/05/23 11:25:46;;;;;;;6.30;3.50;;;22.40;99.90;;;;;;5013443;28;20480;-51
2022/05/23 11:34:21;;;;;;;3.42;3.05;;;22.90;99.90;;;;;;5013250;28;20033;-50
2022/05/23 11:37:01;;;;;;;3.92;3.08;;;23.10;99.90;;;;;;5012904;28;20092;-50
2022/05/23 11:39:59;;;;;;;4.32;2.75;;;23.30;99.90;;;;;;5012785;28;20048;-50
2022/05/23 11:42:32;;;;;;;5.30;2.95;;;23.50;99.90;;;;;;5011921;28;20057;-50
2022/05/23 11:45:57;;;;;;;12.25;3.20;;;23.30;99.90;;;;;;5012190;28;20033;-52
2022/05/23 11:47:58;;;;;;;6.10;3.30;;;23.20;99.90;;;;;;5012872;28;20373;-49
2022/05/23 11:50:33;;;;;;;3.35;2.42;;;23.30;99.90;;;;;;5013050;28;20053;-53
2022/05/23 11:53:28;;;;;;;4.70;2.60;;;23.50;99.90;;;;;;5013389;28;20038;-55
2022/05/23 11:55:54;;;;;;;5.85;2.20;;;23.50;99.90;;;;;;5011878;28;20022;-51
2022/05/23 11:58:26;;;;;;;9.02;2.72;;;23.60;99.90;;;;;;5013001;28;20129;-49
2022/05/23 12:01:04;;;;;;;6.03;2.65;;;23.80;99.90;;;;;;5011692;28;20123;-51
2022/05/23 12:03:51;;;;;;;5.45;2.40;;;23.90;99.90;;;;;;5012869;28;20073;-50
2022/05/23 12:06:34;;;;;;;4.00;2.20;;;23.90;99.90;;;;;;5013158;28;20435;-52
2022/05/23 12:09:12;;;;;;;4.68;2.42;;;23.70;99.90;;;;;;5016415;28;20034;-52
2022/05/23 12:11:39;;;;;;;5.07;2.38;;;23.80;99.90;;;;;;5016503;28;20032;-51
2022/05/23 12:14:19;;;;;;;3.97;2.55;;;23.90;99.90;;;;;;5016546;28;20021;-52
2022/05/23 12:17:06;;;;;;;4.97;2.70;;;24.00;99.90;;;;;;5015951;28;20113;-53
2022/05/23 12:19:40;;;;;;;5.82;2.80;;;24.20;99.90;;;;;;5016709;28;20029;-50
2022/05/23 12:22:18;;;;;;;3.90;2.20;;;24.10;99.90;;;;;;5015800;28;20022;-51
2022/05/23 12:25:16;;;;;;;3.33;2.95;;;24.10;99.90;;;;;;5016147;28;20026;-50
2022/05/23 12:27:45;;;;;;;6.05;2.50;;;24.30;99.90;;;;;;5014927;28;20088;-53
2022/05/23 12:30:37;;;;;;;5.32;2.30;;;24.30;99.90;;;;;;5014775;28;20061;-49
2022/05/23 12:33:02;;;;;;;5.18;2.30;;;24.30;99.90;;;;;;4988129;28;20132;-55
2022/05/23 12:35:40;;;;;;;4.25;2.20;;;24.30;99.90;;;;;;5014704;28;20488;-55
2022/05/23 12:38:22;;;;;;;3.47;2.40;;;24.30;99.90;;;;;;5015970;28;20115;-53
2022/05/23 12:40:51;;;;;;;3.80;1.88;;;24.20;99.90;;;;;;5014647;28;20025;-52
2022/05/23 12:43:26;;;;;;;3.60;2.10;;;24.20;99.90;;;;;;5015866;28;20029;-52
2022/05/23 12:46:36;;;;;;;8.95;2.40;;;24.30;99.90;;;;;;5015477;28;20030;-52
2022/05/23 12:49:28;;;;;;;6.90;2.30;;;24.30;99.90;;;;;;4987765;28;20418;-56
2022/05/23 12:52:20;;;;;;;5.18;2.50;;;24.40;99.90;;;;;;5015840;28;20025;-52
2022/05/23 12:55:13;;;;;;;5.50;2.80;;;24.60;99.90;;;;;;5014464;28;20026;-54
2022/05/23 12:58:02;;;;;;;4.28;2.05;;;24.50;99.90;;;;;;4981111;28;20480;-52
2022/05/23 13:00:33;;;;;;;5.85;2.90;;;24.70;99.90;;;;;;5005187;28;20125;-51
2022/05/23 13:03:23;;;;;;;4.88;2.10;;;24.90;99.90;;;;;;5015888;28;20032;-51
2022/05/23 13:06:00;;;;;;;4.03;2.03;;;24.90;99.90;;;;;;5015266;28;20052;-53
2022/05/23 13:08:50;;;;;;;4.82;2.67;;;25.00;99.90;;;;;;5015713;28;20073;-51
2022/05/23 13:11:38;;;;;;;6.40;3.00;;;25.10;99.90;;;;;;5014784;28;20037;-55
2022/05/23 13:14:04;;;;;;;5.28;2.55;;;25.20;99.90;;;;;;5014729;28;20112;-51
2022/05/23 13:16:37;;;;;;;5.15;2.53;;;25.30;99.90;;;;;;5013861;28;20097;-52
2022/05/23 13:22:13;;;;;;;6.75;2.50;;;25.50;99.90;;;;;;5015273;28;20049;-52
2022/05/23 13:24:59;;;;;;;5.53;2.25;;;25.40;99.90;;;;;;5015737;28;20040;-53
2022/05/23 13:27:29;;;;;;;4.80;2.30;;;25.60;99.90;;;;;;5015458;28;20052;-55
2022/05/23 13:29:56;;;;;;;8.40;2.55;;;25.70;99.90;;;;;;5013614;28;20113;-56
2022/05/23 13:32:23;;;;;;;5.38;2.35;;;25.80;99.90;;;;;;5015129;28;20033;-52
2022/05/23 13:34:49;;;;;;;4.00;2.30;;;25.90;99.90;;;;;;5014938;28;20041;-53
2022/05/23 13:37:38;;;;;;;6.72;2.40;;;25.80;99.90;;;;;;5013829;28;20029;-51
2022/05/23 13:40:09;;;;;;;7.28;2.15;;;25.90;99.90;;;;;;5003227;28;20034;-53
2022/05/23 13:42:35;;;;;;;;;;;26.00;99.90;;;;;;5014124;28;20029;-52
2022/05/23 13:45:16;;;;;;;13.05;2.50;;;26.00;99.90;;;;;;5014984;28;19912;-53
2022/05/23 13:47:50;;;;;;;7.20;2.90;;;26.10;99.90;;;;;;5014605;28;20026;-50
2022/05/23 13:50:20;;;;;;;5.20;2.40;;;26.20;99.90;;;;;;5013256;28;20026;-51
2022/05/23 13:53:10;;;;;;;5.03;2.40;;;26.30;99.90;;;;;;5014544;28;20026;-55
2022/05/23 13:55:50;;;;;;;7.03;3.80;;;26.40;99.90;;;;;;5013704;28;20026;-56
2022/05/23 13:58:28;;;;;;;4.50;2.60;;;26.40;99.90;;;;;;5014723;28;20060;-53
2022/05/23 14:01:05;;;;;;;6.25;2.75;;;26.40;99.90;;;;;;5013649;28;20045;-50
2022/05/23 14:03:40;;;;;;;5.28;2.80;;;26.40;99.90;;;;;;5014380;28;20037;-51
2022/05/23 14:06:11;;;;;;;9.52;2.80;;;26.40;99.90;;;;;;5013171;28;20053;-50
2022/05/23 14:08:40;;;;;;;6.18;2.65;;;26.40;99.90;;;;;;5013818;28;20030;-50
2022/05/23 14:11:35;;;;;;;7.97;3.10;;;26.40;99.90;;;;;;5012883;28;20029;-52
2022/05/23 14:14:17;;;;;;;7.53;2.70;;;26.40;99.90;;;;;;5012951;28;20026;-50
2022/05/23 14:16:59;;;;;;;5.50;2.88;;;26.50;99.90;;;;;;5013732;28;20032;-52